createdAt,value
2023-05-09T00:02:48.010Z,14.50
2023-05-09T00:07:50.523Z,16.10
2023-05-09T00:12:57.109Z,12.40
2023-05-09T00:17:59.506Z,13.40
2023-05-09T00:23:02.657Z,14.80
2023-05-09T00:28:05.805Z,14.40
2023-05-09T00:33:08.189Z,13.30
2023-05-09T00:38:29.908Z,15.10
2023-05-09T00:43:39.976Z,12.60
2023-05-09T00:48:42.473Z,15.50
2023-05-09T00:53:45.745Z,13.90
2023-05-09T00:59:10.703Z,14.30
2023-05-09T01:04:18.944Z,15.80
2023-05-09T01:10:00.250Z,14.60
2023-05-09T01:15:26.950Z,16.10
2023-05-09T01:20:56.557Z,15.10
2023-05-09T01:31:43.613Z,18.70
2023-05-09T01:36:54.224Z,16.90
2023-05-09T01:42:01.300Z,16.60
2023-05-09T01:47:04.482Z,16.30
2023-05-09T01:52:20.228Z,18.70
2023-05-09T01:57:32.480Z,14.30
2023-05-09T02:02:38.228Z,16.70
2023-05-09T02:07:42.409Z,20.50
2023-05-09T02:12:50.528Z,15.50
2023-05-09T02:23:25.180Z,14.40
2023-05-09T02:28:31.840Z,14.70
2023-05-09T02:33:39.657Z,16.00
2023-05-09T02:38:43.185Z,16.40
2023-05-09T02:43:49.632Z,15.30
2023-05-09T02:48:52.786Z,19.80
2023-05-09T02:54:15.612Z,18.50
2023-05-09T02:59:20.202Z,16.00
2023-05-09T03:04:31.422Z,15.60
2023-05-09T03:09:39.235Z,14.90
2023-05-09T03:14:47.646Z,16.20
2023-05-09T03:19:53.354Z,21.40
2023-05-09T03:24:56.717Z,20.90
2023-05-09T03:30:07.417Z,18.30
2023-05-09T03:35:45.509Z,17.90
2023-05-09T03:41:44.280Z,20.60
2023-05-09T03:47:12.677Z,21.80
2023-05-09T03:52:21.254Z,21.90
2023-05-09T03:57:36.129Z,23.00
2023-05-09T04:02:47.405Z,18.90
2023-05-09T04:08:00.864Z,19.70
2023-05-09T04:13:16.327Z,18.90
2023-05-09T04:18:51.190Z,18.90
2023-05-09T04:23:53.815Z,18.90
2023-05-09T04:29:27.414Z,19.60
2023-05-09T04:34:35.879Z,17.20
2023-05-09T04:39:58.650Z,20.20
2023-05-09T04:45:13.720Z,17.60
2023-05-09T04:50:27.012Z,16.50
2023-05-09T04:55:39.421Z,17.00
2023-05-09T05:00:47.938Z,17.20
2023-05-09T05:05:54.088Z,17.00
2023-05-09T05:11:00.060Z,14.90
2023-05-09T05:21:40.798Z,16.30
2023-05-09T05:26:50.165Z,12.90
2023-05-09T05:32:20.169Z,12.10
2023-05-09T05:37:33.410Z,14.10
2023-05-09T05:42:38.560Z,12.00
2023-05-09T05:48:06.276Z,11.20
2023-05-09T05:53:08.814Z,11.50
2023-05-09T05:58:16.649Z,10.90
2023-05-09T06:03:22.387Z,9.90
2023-05-09T06:08:41.743Z,12.70
2023-05-09T06:13:50.646Z,10.20
2023-05-09T06:19:11.514Z,9.40
2023-05-09T06:24:35.785Z,9.40
2023-05-09T06:30:23.731Z,8.90
2023-05-09T06:35:36.604Z,12.20
2023-05-09T06:40:52.924Z,10.70
2023-05-09T06:46:06.922Z,8.70
2023-05-09T06:51:22.275Z,7.50
2023-05-09T06:56:33.645Z,9.20
2023-05-09T07:01:45.475Z,8.50
2023-05-09T07:06:56.218Z,6.90
2023-05-09T07:12:01.116Z,8.90
2023-05-09T07:17:21.376Z,9.40
2023-05-09T07:22:30.731Z,8.40
2023-05-09T07:27:40.998Z,7.00
2023-05-09T07:32:55.949Z,10.30
2023-05-09T07:38:14.029Z,6.60
2023-05-09T07:43:21.487Z,6.90
2023-05-09T07:48:38.899Z,7.90
2023-05-09T07:53:41.430Z,6.50
2023-05-09T07:58:43.523Z,8.20
2023-05-09T08:03:45.959Z,5.80
2023-05-09T08:08:48.872Z,7.00
2023-05-09T08:13:51.665Z,8.90
2023-05-09T08:19:00.516Z,6.50
2023-05-09T08:24:10.605Z,7.60
2023-05-09T08:29:20.905Z,6.70
2023-05-09T08:34:34.666Z,5.20
2023-05-09T08:39:37.440Z,3.20
2023-05-09T08:44:39.466Z,3.80
2023-05-09T08:49:45.638Z,7.20
2023-05-09T08:54:53.430Z,6.60
2023-05-09T08:59:56.822Z,6.70
2023-05-09T09:04:59.044Z,4.70
2023-05-09T09:10:12.252Z,6.80
2023-05-09T09:15:20.259Z,3.40
2023-05-09T09:20:34.467Z,7.30
2023-05-09T09:25:39.632Z,4.30
2023-05-09T09:30:53.607Z,4.70
2023-05-09T09:35:57.182Z,7.20
2023-05-09T09:40:59.857Z,4.80
2023-05-09T09:46:10.683Z,8.60
2023-05-09T09:51:13.171Z,5.30
2023-05-09T09:56:15.248Z,8.10
2023-05-09T10:01:26.458Z,5.00
2023-05-09T10:06:28.959Z,5.10
2023-05-09T10:11:38.617Z,5.20
2023-05-09T10:16:44.849Z,6.60
2023-05-09T10:21:55.914Z,4.70
2023-05-09T10:27:06.877Z,4.30
2023-05-09T10:32:21.273Z,5.10
2023-05-09T10:37:31.651Z,6.00
2023-05-09T10:42:36.174Z,4.20
2023-05-09T10:47:42.702Z,3.30
2023-05-09T10:53:17.241Z,4.10
2023-05-09T10:58:40.482Z,3.60
2023-05-09T11:03:57.994Z,2.80
2023-05-09T11:09:25.256Z,2.60
2023-05-09T11:14:38.222Z,3.70
2023-05-09T11:19:51.548Z,2.40
2023-05-09T11:25:25.979Z,4.80
2023-05-09T11:30:45.612Z,2.10
2023-05-09T11:35:48.495Z,3.50
2023-05-09T11:40:52.214Z,2.50
2023-05-09T11:45:55.256Z,3.50
2023-05-09T11:51:05.908Z,3.00
2023-05-09T11:56:14.097Z,3.90
2023-05-09T12:01:25.686Z,3.60
2023-05-09T12:06:31.079Z,4.50
2023-05-09T12:11:37.088Z,2.50
2023-05-09T12:16:48.606Z,3.50
2023-05-09T12:21:56.695Z,2.30
2023-05-09T12:27:12.382Z,2.90
2023-05-09T12:32:41.919Z,4.20
2023-05-09T12:38:06.682Z,2.70
2023-05-09T12:43:14.942Z,4.70
2023-05-09T12:48:24.127Z,2.80
2023-05-09T12:53:36.674Z,5.40
2023-05-09T12:59:15.766Z,2.80
2023-05-09T13:04:29.642Z,1.80
2023-05-09T13:09:34.297Z,3.50
2023-05-09T13:14:36.559Z,2.20
2023-05-09T13:19:54.414Z,1.60
2023-05-09T13:25:06.625Z,4.40
2023-05-09T13:30:21.784Z,3.20
2023-05-09T13:35:43.207Z,2.70
2023-05-09T13:40:56.939Z,2.60
2023-05-09T13:46:02.343Z,1.80
2023-05-09T13:51:07.373Z,2.80
2023-05-09T13:56:12.399Z,2.10
2023-05-09T14:01:16.756Z,2.20
2023-05-09T14:06:22.139Z,4.60
2023-05-09T14:11:31.275Z,5.00
2023-05-09T14:16:43.980Z,2.30
2023-05-09T14:21:48.538Z,2.60
2023-05-09T14:27:00.241Z,2.10
2023-05-09T14:32:14.255Z,2.00
2023-05-09T14:37:25.059Z,3.10
2023-05-09T14:42:33.041Z,2.40
2023-05-09T14:47:42.641Z,2.10
2023-05-09T14:52:46.177Z,3.90
2023-05-09T14:57:53.216Z,2.40
2023-05-09T15:03:07.174Z,2.40
2023-05-09T15:08:19.767Z,2.60
2023-05-09T15:13:22.407Z,2.70
2023-05-09T15:18:28.705Z,1.90
2023-05-09T15:23:34.838Z,3.10
2023-05-09T15:28:57.150Z,3.70
2023-05-09T15:34:17.111Z,2.80
2023-05-09T15:39:37.780Z,2.30
2023-05-09T15:44:41.106Z,2.40
2023-05-09T15:49:52.446Z,3.40
2023-05-09T15:54:58.363Z,2.00
2023-05-09T16:00:07.180Z,4.20
2023-05-09T16:05:27.433Z,3.80
2023-05-09T16:10:36.297Z,3.30
2023-05-09T16:15:41.757Z,4.40
2023-05-09T16:20:54.975Z,2.40
2023-05-09T16:26:00.850Z,3.00
2023-05-09T16:31:08.718Z,3.30
2023-05-09T16:36:22.134Z,4.70
2023-05-09T16:41:24.897Z,2.60
2023-05-09T16:46:47.398Z,2.90
2023-05-09T16:52:01.095Z,4.10
2023-05-09T16:57:03.638Z,3.10
2023-05-09T17:02:11.898Z,2.70
2023-05-09T17:07:15.692Z,4.60
2023-05-09T17:12:18.439Z,4.60
2023-05-09T17:17:25.755Z,5.10
2023-05-09T17:22:31.063Z,2.90
2023-05-09T17:27:33.959Z,4.40
2023-05-09T17:32:42.325Z,2.40
2023-05-09T17:37:44.544Z,2.80
2023-05-09T17:42:46.945Z,4.20
2023-05-09T17:47:51.973Z,2.20
2023-05-09T17:53:24.222Z,2.20
2023-05-09T17:58:27.791Z,4.60
2023-05-09T18:03:32.356Z,3.50
2023-05-09T18:08:37.636Z,2.30
2023-05-09T18:13:51.773Z,3.70
2023-05-09T18:19:00.177Z,6.90
2023-05-09T18:24:02.740Z,4.20
2023-05-09T18:29:05.678Z,3.50
2023-05-09T18:34:14.029Z,3.70
2023-05-09T18:39:16.317Z,4.30
2023-05-09T18:44:23.566Z,4.50
2023-05-09T18:49:39.349Z,6.00
2023-05-09T18:54:52.610Z,5.80
2023-05-09T18:59:59.208Z,5.50
2023-05-09T19:05:09.492Z,5.00
2023-05-09T19:10:13.643Z,4.70
2023-05-09T19:15:16.186Z,4.60
2023-05-09T19:20:34.838Z,5.20
2023-05-09T19:25:40.388Z,5.30
2023-05-09T19:30:42.834Z,6.80
2023-05-09T19:35:50.355Z,3.50
2023-05-09T19:41:01.634Z,5.30
2023-05-09T19:46:06.923Z,6.10
2023-05-09T19:51:12.472Z,6.10
2023-05-09T19:56:17.697Z,7.30
2023-05-09T20:01:20.252Z,7.60
2023-05-09T20:06:25.865Z,5.50
2023-05-09T20:11:31.273Z,4.50
2023-05-09T20:16:33.496Z,6.50
2023-05-09T20:21:38.845Z,6.60
2023-05-09T20:26:42.325Z,5.30
2023-05-09T20:31:50.408Z,5.30
2023-05-09T20:37:01.674Z,5.90
2023-05-09T20:42:19.597Z,7.80
2023-05-09T20:47:46.634Z,7.90
2023-05-09T20:52:51.665Z,6.60
2023-05-09T20:57:56.667Z,8.30
2023-05-09T21:03:10.240Z,9.20
2023-05-09T21:08:13.146Z,7.70
2023-05-09T21:13:24.412Z,9.00
2023-05-09T21:18:33.380Z,6.90
2023-05-09T21:23:38.487Z,10.90
2023-05-09T21:28:59.083Z,9.90
2023-05-09T21:34:14.105Z,8.00
2023-05-09T21:39:33.438Z,11.20
2023-05-09T21:44:56.303Z,8.40
2023-05-09T21:50:17.766Z,7.80
2023-05-09T21:55:43.423Z,8.20
2023-05-09T22:00:48.566Z,9.20
2023-05-09T22:06:02.236Z,6.80
2023-05-09T22:11:10.996Z,8.40
2023-05-09T22:16:22.399Z,8.80
2023-05-09T22:21:24.994Z,8.10
2023-05-09T22:26:53.251Z,8.00
2023-05-09T22:32:08.508Z,9.50
2023-05-09T22:37:16.779Z,8.30
2023-05-09T22:42:31.634Z,9.70
2023-05-09T22:47:44.633Z,8.50
2023-05-09T22:53:07.332Z,10.30
2023-05-09T22:58:14.738Z,10.30
2023-05-09T23:03:32.226Z,8.50
2023-05-09T23:08:36.104Z,13.10
2023-05-09T23:13:46.023Z,10.40
2023-05-09T23:18:54.496Z,8.80
2023-05-09T23:24:27.008Z,10.50
2023-05-09T23:29:33.240Z,9.50
2023-05-09T23:34:43.559Z,10.30
2023-05-09T23:39:47.335Z,7.80
2023-05-09T23:45:00.763Z,9.80
2023-05-09T23:50:12.307Z,8.80
